createdAt,value
2019-03-06T00:00:46.110Z,92.31
2019-03-06T00:03:19.571Z,92.71
2019-03-06T00:05:51.528Z,93.90
2019-03-06T00:08:23.445Z,93.45
2019-03-06T00:10:55.313Z,93.30
2019-03-06T00:13:27.025Z,93.19
2019-03-06T00:16:00.040Z,92.83
2019-03-06T00:18:31.820Z,92.84
2019-03-06T00:21:03.535Z,93.21
2019-03-06T00:23:35.352Z,92.96
2019-03-06T00:26:07.216Z,93.77
2019-03-06T00:28:39.181Z,94.08
2019-03-06T00:31:11.775Z,94.15
2019-03-06T00:33:43.503Z,94.57
2019-03-06T00:36:19.693Z,94.87
2019-03-06T00:38:51.427Z,94.93
2019-03-06T00:41:31.251Z,95.07
2019-03-06T00:44:03.222Z,95.01
2019-03-06T00:46:34.950Z,94.94
2019-03-06T00:49:06.835Z,94.77
2019-03-06T00:51:38.631Z,94.54
2019-03-06T01:07:09.671Z,94.82
2019-03-06T01:09:41.525Z,94.83
2019-03-06T01:12:15.230Z,94.75
2019-03-06T01:14:47.147Z,94.77
2019-03-06T01:17:18.967Z,94.67
2019-03-06T01:19:50.701Z,94.49
2019-03-06T01:22:22.615Z,94.67
2019-03-06T01:24:54.499Z,94.67
2019-03-06T01:27:26.312Z,94.62
2019-03-06T01:29:58.127Z,94.44
2019-03-06T01:32:30.119Z,94.46
2019-03-06T01:35:20.841Z,94.43
2019-03-06T01:38:17.610Z,94.22
2019-03-06T01:41:06.156Z,94.19
2019-03-06T01:43:43.490Z,94.06
2019-03-06T01:46:15.495Z,93.78
2019-03-06T01:48:47.370Z,93.80
2019-03-06T01:51:19.553Z,93.58
2019-03-06T01:53:51.703Z,93.57
2019-03-06T01:56:23.830Z,93.98
2019-03-06T01:58:55.573Z,94.35
2019-03-06T02:01:27.378Z,94.36
2019-03-06T02:03:59.452Z,94.14
2019-03-06T02:06:32.539Z,93.91
2019-03-06T02:09:04.634Z,93.79
2019-03-06T02:11:38.191Z,93.67
2019-03-06T02:14:10.005Z,93.58
2019-03-06T02:16:41.899Z,93.52
2019-03-06T02:19:13.793Z,93.71
2019-03-06T02:21:45.684Z,93.69
2019-03-06T02:24:17.845Z,93.46
2019-03-06T02:26:49.834Z,93.43
2019-03-06T02:29:21.581Z,93.61
2019-03-06T02:31:53.456Z,93.52
2019-03-06T02:34:25.200Z,93.32
2019-03-06T02:36:57.015Z,93.21
2019-03-06T02:39:28.834Z,93.10
2019-03-06T02:42:00.556Z,93.10
2019-03-06T02:44:32.392Z,93.23
2019-03-06T02:47:04.374Z,93.20
2019-03-06T02:49:36.122Z,93.24
2019-03-06T02:52:07.999Z,92.69
2019-03-06T02:54:39.805Z,92.51
2019-03-06T02:57:11.630Z,92.28
2019-03-06T03:00:00.796Z,92.11
2019-03-06T03:02:42.515Z,91.94
2019-03-06T03:05:31.474Z,91.98
2019-03-06T03:08:03.294Z,92.13
2019-03-06T03:10:35.243Z,92.02
2019-03-06T03:13:07.177Z,91.45
2019-03-06T03:15:39.060Z,91.35
2019-03-06T03:18:11.248Z,90.77
2019-03-06T03:20:43.225Z,90.73
2019-03-06T03:23:15.242Z,90.92
2019-03-06T03:25:47.223Z,90.89
2019-03-06T03:28:19.893Z,90.72
2019-03-06T03:30:51.766Z,90.92
2019-03-06T03:33:23.586Z,91.10
2019-03-06T03:35:55.973Z,91.13
2019-03-06T03:38:27.795Z,90.68
2019-03-06T03:40:59.615Z,90.54
2019-03-06T03:43:31.458Z,90.78
2019-03-06T03:46:03.379Z,91.39
2019-03-06T03:48:35.145Z,90.86
2019-03-06T03:51:06.941Z,90.53
2019-03-06T03:53:38.767Z,90.58
2019-03-06T03:56:11.420Z,90.48
2019-03-06T03:58:43.258Z,90.44
2019-03-06T04:01:15.154Z,90.52
2019-03-06T04:03:46.923Z,89.90
2019-03-06T04:06:19.216Z,90.41
2019-03-06T04:08:51.114Z,90.31
2019-03-06T04:11:22.996Z,90.01
2019-03-06T04:13:54.821Z,90.46
2019-03-06T04:16:26.630Z,90.04
2019-03-06T04:18:58.467Z,90.18
2019-03-06T04:21:30.296Z,90.11
2019-03-06T04:24:02.094Z,90.18
2019-03-06T04:26:34.090Z,89.61
2019-03-06T04:29:06.116Z,89.50
2019-03-06T04:31:38.589Z,89.62
2019-03-06T04:34:11.843Z,89.93
2019-03-06T04:36:43.579Z,90.05
2019-03-06T04:39:15.623Z,90.11
2019-03-06T04:41:47.370Z,89.75
2019-03-06T04:44:19.279Z,89.99
2019-03-06T04:46:51.101Z,90.32
2019-03-06T04:49:23.359Z,90.09
2019-03-06T04:51:55.098Z,89.95
2019-03-06T04:54:26.848Z,90.08
2019-03-06T04:56:58.944Z,89.83
2019-03-06T04:59:31.240Z,89.77
2019-03-06T05:02:03.139Z,89.59
2019-03-06T05:04:34.934Z,89.34
2019-03-06T05:07:06.904Z,89.21
2019-03-06T05:09:38.846Z,89.37
2019-03-06T05:12:11.374Z,89.18
2019-03-06T05:14:43.465Z,89.36
2019-03-06T05:17:21.250Z,89.47
2019-03-06T05:19:53.475Z,89.54
2019-03-06T05:22:25.535Z,89.57
2019-03-06T05:24:57.485Z,89.21
2019-03-06T05:27:29.477Z,89.31
2019-03-06T05:30:01.580Z,89.16
2019-03-06T05:32:38.986Z,89.28
2019-03-06T05:35:25.878Z,89.26
2019-03-06T05:38:36.203Z,88.78
2019-03-06T05:41:08.173Z,89.24
2019-03-06T05:43:40.307Z,89.39
2019-03-06T05:46:12.305Z,89.32
2019-03-06T05:48:44.251Z,89.06
2019-03-06T05:51:16.516Z,88.67
2019-03-06T05:53:48.492Z,88.30
2019-03-06T05:56:20.626Z,87.65
2019-03-06T05:58:52.455Z,87.58
2019-03-06T06:01:24.354Z,88.05
2019-03-06T06:03:56.307Z,87.73
2019-03-06T06:06:28.154Z,87.75
2019-03-06T06:09:00.386Z,87.59
2019-03-06T06:11:33.969Z,87.66
2019-03-06T06:14:06.043Z,87.76
2019-03-06T06:16:37.877Z,87.52
2019-03-06T06:19:10.192Z,87.77
2019-03-06T06:21:54.395Z,87.46
2019-03-06T06:24:28.511Z,87.40
2019-03-06T06:27:00.541Z,87.38
2019-03-06T06:29:32.296Z,86.79
2019-03-06T06:32:04.227Z,87.40
2019-03-06T06:34:35.963Z,86.78
2019-03-06T06:37:07.785Z,86.52
2019-03-06T06:39:39.563Z,86.57
2019-03-06T06:42:11.679Z,86.21
2019-03-06T06:44:43.441Z,86.42
2019-03-06T06:47:15.619Z,85.97
2019-03-06T06:49:47.764Z,86.29
2019-03-06T06:53:24.619Z,86.53
2019-03-06T06:57:26.775Z,86.89
2019-03-06T07:01:19.105Z,86.56
2019-03-06T07:04:58.462Z,86.13
2019-03-06T07:07:51.980Z,86.06
2019-03-06T07:10:57.653Z,86.21
2019-03-06T07:13:46.749Z,86.29
2019-03-06T07:16:40.435Z,86.18
2019-03-06T07:19:31.421Z,85.99
2019-03-06T07:22:20.849Z,86.61
2019-03-06T07:25:11.602Z,86.42
2019-03-06T07:28:05.343Z,86.75
2019-03-06T07:30:54.711Z,86.17
2019-03-06T07:33:53.396Z,85.04
2019-03-06T07:36:43.055Z,85.11
2019-03-06T07:39:25.622Z,85.71
2019-03-06T07:42:15.151Z,84.85
2019-03-06T07:46:10.090Z,85.02
2019-03-06T07:49:03.617Z,84.77
2019-03-06T07:51:57.276Z,84.68
2019-03-06T07:54:56.821Z,84.78
2019-03-06T07:57:39.152Z,84.66
2019-03-06T08:00:18.911Z,84.92
2019-03-06T08:03:16.555Z,84.78
2019-03-06T08:05:48.430Z,83.92
2019-03-06T08:08:20.169Z,83.80
2019-03-06T08:10:53.439Z,84.04
2019-03-06T08:13:35.871Z,83.55
2019-03-06T08:16:13.207Z,83.38
2019-03-06T08:18:58.183Z,83.64
2019-03-06T08:21:48.494Z,83.13
2019-03-06T08:24:42.006Z,83.36
2019-03-06T08:27:14.071Z,82.85
2019-03-06T08:29:46.056Z,82.84
2019-03-06T08:32:28.309Z,82.27
2019-03-06T08:35:00.248Z,81.44
2019-03-06T08:37:32.517Z,81.64
2019-03-06T08:40:05.276Z,81.21
2019-03-06T08:42:37.159Z,80.57
2019-03-06T08:45:10.407Z,80.61
2019-03-06T08:48:06.111Z,80.72
2019-03-06T08:50:56.172Z,79.68
2019-03-06T08:53:33.054Z,79.80
2019-03-06T08:56:20.774Z,79.16
2019-03-06T08:59:01.226Z,78.71
2019-03-06T09:02:00.023Z,76.97
2019-03-06T09:04:34.037Z,77.23
2019-03-06T09:07:24.083Z,76.72
2019-03-06T09:10:09.531Z,77.04
2019-03-06T09:12:48.635Z,78.14
2019-03-06T09:15:30.221Z,77.51
2019-03-06T09:18:19.561Z,77.26
2019-03-06T09:21:10.242Z,76.76
2019-03-06T09:23:59.152Z,75.97
2019-03-06T09:27:02.031Z,75.59
2019-03-06T09:30:01.694Z,75.98
2019-03-06T09:32:38.590Z,75.83
2019-03-06T09:35:33.037Z,74.74
2019-03-06T09:38:15.447Z,75.43
2019-03-06T09:41:01.822Z,75.62
2019-03-06T09:43:50.100Z,75.73
2019-03-06T09:46:37.226Z,74.67
2019-03-06T09:49:31.050Z,74.90
2019-03-06T09:52:20.123Z,75.20
2019-03-06T09:55:11.375Z,74.62
2019-03-06T09:57:49.919Z,74.32
2019-03-06T10:00:46.569Z,74.00
2019-03-06T10:03:50.155Z,73.09
2019-03-06T10:06:33.558Z,73.43
2019-03-06T10:09:28.677Z,72.14
2019-03-06T10:12:25.090Z,72.35
2019-03-06T10:15:10.446Z,72.11
2019-03-06T10:17:49.691Z,72.05
2019-03-06T10:20:25.354Z,72.11
2019-03-06T10:22:59.581Z,71.55
2019-03-06T10:25:31.062Z,71.34
2019-03-06T10:28:06.519Z,71.67
2019-03-06T10:30:37.225Z,71.65
2019-03-06T10:33:09.175Z,72.17
2019-03-06T10:35:41.218Z,70.43
2019-03-06T10:38:16.627Z,70.64
2019-03-06T10:40:46.623Z,68.77
2019-03-06T10:43:19.338Z,68.89
2019-03-06T10:45:51.164Z,68.29
2019-03-06T10:48:23.054Z,67.06
2019-03-06T10:50:54.950Z,66.18
2019-03-06T10:53:26.838Z,66.33
2019-03-06T10:55:58.734Z,65.46
2019-03-06T10:58:30.624Z,65.26
2019-03-06T11:01:02.613Z,64.54
2019-03-06T11:03:53.548Z,64.60
2019-03-06T11:06:25.466Z,65.30
2019-03-06T11:08:57.363Z,62.60
2019-03-06T11:11:30.833Z,63.15
2019-03-06T11:14:06.234Z,62.96
2019-03-06T11:16:40.174Z,61.75
2019-03-06T11:19:10.719Z,60.22
2019-03-06T11:21:42.709Z,59.94
2019-03-06T11:24:14.618Z,59.39
2019-03-06T11:26:46.514Z,59.81
2019-03-06T11:29:19.409Z,60.45
2019-03-06T11:31:51.456Z,61.17
2019-03-06T11:34:23.417Z,62.90
2019-03-06T11:36:55.488Z,63.99
2019-03-06T11:39:27.747Z,64.25
2019-03-06T11:41:59.643Z,63.27
2019-03-06T11:44:31.379Z,62.60
2019-03-06T11:47:03.283Z,63.90
2019-03-06T11:49:36.145Z,63.11
2019-03-06T11:52:08.069Z,63.50
2019-03-06T11:54:40.139Z,62.89
2019-03-06T11:57:12.037Z,63.85
2019-03-06T11:59:44.177Z,63.66
2019-03-06T12:02:16.987Z,63.70
2019-03-06T12:04:48.999Z,63.79
2019-03-06T12:07:20.768Z,63.83
2019-03-06T12:09:52.649Z,63.63
2019-03-06T12:12:24.473Z,63.57
2019-03-06T12:14:56.289Z,63.96
2019-03-06T12:17:28.118Z,64.41
2019-03-06T12:20:07.877Z,64.20
2019-03-06T12:22:33.854Z,64.30
2019-03-06T12:25:07.374Z,64.05
2019-03-06T12:27:39.388Z,63.75
2019-03-06T12:30:12.270Z,64.57
2019-03-06T12:32:45.586Z,63.55
2019-03-06T12:35:18.026Z,63.86
2019-03-06T12:37:49.926Z,64.12
2019-03-06T12:40:22.872Z,63.55
2019-03-06T12:42:54.918Z,62.69
2019-03-06T12:45:27.395Z,63.02
2019-03-06T12:47:59.786Z,63.14
2019-03-06T12:50:32.309Z,62.05
2019-03-06T12:53:04.283Z,61.40
2019-03-06T12:55:36.236Z,62.32
2019-03-06T12:58:08.373Z,61.25
2019-03-06T13:00:40.444Z,61.94
2019-03-06T13:03:12.260Z,61.21
2019-03-06T13:05:44.000Z,61.06
2019-03-06T13:08:19.667Z,60.76
2019-03-06T13:10:49.344Z,61.10
2019-03-06T13:13:21.344Z,59.86
2019-03-06T13:15:53.214Z,59.56
2019-03-06T13:18:25.118Z,60.06
2019-03-06T13:20:57.005Z,60.07
2019-03-06T13:23:29.351Z,60.20
2019-03-06T13:26:10.036Z,59.60
2019-03-06T13:28:34.914Z,59.43
2019-03-06T13:31:07.241Z,58.40
2019-03-06T13:33:59.610Z,58.12
2019-03-06T13:36:31.424Z,58.07
2019-03-06T13:39:06.559Z,56.54
2019-03-06T13:41:39.869Z,57.46
2019-03-06T13:44:11.871Z,57.44
2019-03-06T13:46:43.720Z,57.63
2019-03-06T13:49:15.508Z,56.73
2019-03-06T13:51:47.324Z,57.01
2019-03-06T13:54:19.240Z,55.52
2019-03-06T13:56:51.918Z,55.65
2019-03-06T13:59:24.236Z,55.72
2019-03-06T14:01:56.112Z,54.84
2019-03-06T14:04:27.939Z,54.89
2019-03-06T14:06:59.693Z,54.42
2019-03-06T14:09:31.948Z,54.06
2019-03-06T14:12:03.843Z,53.02
2019-03-06T14:14:35.680Z,53.28
2019-03-06T14:17:08.064Z,52.27
2019-03-06T14:19:40.228Z,50.91
2019-03-06T14:22:12.118Z,52.28
2019-03-06T14:24:44.091Z,51.89
2019-03-06T14:27:17.225Z,49.84
2019-03-06T14:29:51.046Z,51.36
2019-03-06T14:32:22.552Z,52.80
2019-03-06T14:34:54.452Z,52.99
2019-03-06T14:37:26.434Z,51.38
2019-03-06T14:39:59.418Z,51.79
2019-03-06T14:42:32.269Z,51.30
2019-03-06T14:45:04.674Z,51.00
2019-03-06T14:47:36.962Z,52.09
2019-03-06T14:50:09.856Z,52.19
2019-03-06T14:52:41.781Z,51.60
2019-03-06T14:55:14.327Z,52.81
2019-03-06T14:57:46.479Z,52.97
2019-03-06T15:00:19.008Z,52.73
2019-03-06T15:02:50.794Z,53.18
2019-03-06T15:05:22.697Z,53.27
2019-03-06T15:07:54.623Z,53.24
2019-03-06T15:10:26.627Z,53.62
2019-03-06T15:12:58.514Z,53.46
2019-03-06T15:15:30.334Z,53.63
2019-03-06T15:18:10.290Z,54.65
2019-03-06T15:20:37.720Z,55.31
2019-03-06T15:23:09.318Z,55.38
2019-03-06T15:25:41.137Z,54.92
2019-03-06T15:28:13.129Z,56.15
2019-03-06T15:30:45.032Z,57.07
2019-03-06T15:33:16.784Z,56.65
2019-03-06T15:35:48.679Z,57.19
2019-03-06T15:38:20.576Z,58.11
2019-03-06T15:40:52.388Z,58.81
2019-03-06T15:43:24.734Z,58.34
2019-03-06T15:45:56.496Z,59.63
2019-03-06T15:48:28.348Z,59.95
2019-03-06T15:51:00.433Z,59.76
2019-03-06T15:53:32.532Z,59.94
2019-03-06T15:56:04.436Z,59.72
2019-03-06T15:58:36.329Z,59.94
2019-03-06T16:01:08.273Z,60.02
2019-03-06T16:03:40.166Z,60.70
2019-03-06T16:06:20.167Z,61.27
2019-03-06T16:08:45.667Z,61.13
2019-03-06T16:11:19.693Z,61.01
2019-03-06T16:13:51.248Z,61.45
2019-03-06T16:16:23.153Z,60.90
2019-03-06T16:18:56.009Z,61.10
2019-03-06T16:21:27.828Z,61.61
2019-03-06T16:23:59.694Z,62.18
2019-03-06T16:26:31.595Z,61.96
2019-03-06T16:29:03.740Z,62.20
2019-03-06T16:31:35.634Z,63.11
2019-03-06T16:34:07.530Z,62.98
2019-03-06T16:36:39.596Z,63.02
2019-03-06T16:39:11.716Z,63.28
2019-03-06T16:41:45.091Z,63.62
2019-03-06T16:44:16.979Z,63.42
2019-03-06T16:46:48.810Z,63.68
2019-03-06T16:49:20.821Z,63.61
2019-03-06T16:51:52.737Z,63.31
2019-03-06T16:54:24.909Z,63.65
2019-03-06T16:56:56.821Z,63.98
2019-03-06T16:59:28.689Z,63.46
2019-03-06T17:02:00.582Z,63.40
2019-03-06T17:04:32.753Z,63.62
2019-03-06T17:07:04.958Z,63.83
2019-03-06T17:09:36.853Z,64.21
2019-03-06T17:12:08.954Z,64.45
2019-03-06T17:14:40.793Z,64.40
2019-03-06T17:17:12.686Z,64.83
2019-03-06T17:19:44.680Z,64.85
2019-03-06T17:22:16.874Z,65.31
2019-03-06T17:24:48.714Z,65.30
2019-03-06T17:27:20.464Z,65.18
2019-03-06T17:29:52.357Z,65.63
2019-03-06T17:32:24.217Z,65.88
2019-03-06T17:34:56.454Z,66.66
2019-03-06T17:37:28.515Z,67.29
2019-03-06T17:40:00.600Z,67.72
2019-03-06T17:42:32.919Z,67.85
2019-03-06T17:45:05.170Z,68.37
2019-03-06T17:47:36.993Z,68.58
2019-03-06T17:50:09.115Z,69.17
2019-03-06T17:52:41.173Z,69.44
2019-03-06T17:55:14.437Z,69.33
2019-03-06T17:57:46.264Z,69.48
2019-03-06T18:00:21.914Z,69.79
2019-03-06T18:02:53.728Z,69.82
2019-03-06T18:05:26.083Z,69.97
2019-03-06T18:07:57.952Z,70.32
2019-03-06T18:10:29.840Z,70.70
2019-03-06T18:13:01.889Z,70.76
2019-03-06T18:15:34.254Z,70.44
2019-03-06T18:18:06.426Z,70.47
2019-03-06T18:20:38.568Z,70.64
2019-03-06T18:23:11.352Z,70.66
2019-03-06T18:25:44.604Z,70.83
2019-03-06T18:28:17.468Z,70.69
2019-03-06T18:30:49.216Z,70.86
2019-03-06T18:33:21.039Z,71.68
2019-03-06T18:35:52.925Z,72.02
2019-03-06T18:38:24.729Z,72.62
2019-03-06T18:40:56.568Z,72.56
2019-03-06T18:43:28.512Z,72.01
2019-03-06T18:46:00.266Z,72.10
2019-03-06T18:48:32.056Z,72.08
2019-03-06T18:51:03.964Z,71.92
2019-03-06T18:53:35.686Z,71.77
2019-03-06T18:56:07.499Z,71.42
2019-03-06T18:58:39.238Z,71.82
2019-03-06T19:01:12.084Z,72.39
2019-03-06T19:03:44.289Z,72.82
2019-03-06T19:06:16.435Z,72.63
2019-03-06T19:08:48.237Z,72.67
2019-03-06T19:11:19.977Z,73.08
2019-03-06T19:13:51.864Z,72.60
2019-03-06T19:16:23.973Z,72.47
2019-03-06T19:18:55.818Z,72.69
2019-03-06T19:21:27.685Z,72.42
2019-03-06T19:23:59.700Z,72.89
2019-03-06T19:26:31.791Z,73.07
2019-03-06T19:29:05.494Z,73.09
2019-03-06T19:31:37.577Z,73.12
2019-03-06T19:34:09.858Z,73.47
2019-03-06T19:36:43.070Z,73.43
2019-03-06T19:39:15.010Z,73.19
2019-03-06T19:41:47.100Z,73.45
2019-03-06T19:44:19.732Z,72.82
2019-03-06T19:46:51.594Z,72.72
2019-03-06T19:49:23.463Z,72.44
2019-03-06T19:51:55.302Z,72.28
2019-03-06T19:54:27.174Z,71.71
2019-03-06T19:56:59.257Z,71.66
2019-03-06T19:59:31.208Z,71.61
2019-03-06T20:02:03.362Z,71.80
2019-03-06T20:04:35.637Z,71.86
2019-03-06T20:07:07.590Z,71.90
2019-03-06T20:09:39.686Z,72.06
2019-03-06T20:12:11.688Z,73.23
2019-03-06T20:14:43.839Z,73.33
2019-03-06T20:17:15.996Z,73.33
2019-03-06T20:19:49.274Z,73.12
2019-03-06T20:22:22.799Z,72.61
2019-03-06T20:24:54.782Z,72.50
2019-03-06T20:27:26.963Z,72.33
2019-03-06T20:29:59.271Z,72.40
2019-03-06T20:32:31.637Z,72.02
2019-03-06T20:35:03.638Z,71.83
2019-03-06T20:37:35.520Z,71.86
2019-03-06T20:40:08.217Z,71.70
2019-03-06T20:42:40.659Z,71.28
2019-03-06T20:45:12.912Z,71.30
2019-03-06T20:47:45.246Z,71.50
2019-03-06T20:50:17.284Z,71.42
2019-03-06T20:52:50.357Z,71.28
2019-03-06T20:55:22.455Z,71.05
2019-03-06T20:57:54.384Z,70.64
2019-03-06T21:00:26.463Z,70.68
2019-03-06T21:02:58.405Z,69.95
2019-03-06T21:05:30.479Z,69.85
2019-03-06T21:08:02.422Z,69.44
2019-03-06T21:10:34.190Z,68.86
2019-03-06T21:13:06.440Z,68.93
2019-03-06T21:15:38.316Z,68.67
2019-03-06T21:18:11.329Z,68.11
2019-03-06T21:20:43.256Z,67.94
2019-03-06T21:23:15.095Z,66.88
2019-03-06T21:25:47.508Z,66.43
2019-03-06T21:28:19.464Z,66.55
2019-03-06T21:30:51.583Z,65.76
2019-03-06T21:33:23.377Z,65.49
2019-03-06T21:35:55.430Z,65.79
2019-03-06T21:38:27.200Z,65.42
2019-03-06T21:41:00.140Z,65.57
2019-03-06T21:43:32.010Z,65.55
2019-03-06T21:46:03.948Z,65.08
2019-03-06T21:48:36.082Z,65.67
2019-03-06T21:51:07.936Z,64.24
2019-03-06T21:53:39.913Z,63.71
2019-03-06T21:56:11.820Z,62.23
2019-03-06T21:58:43.775Z,62.98
2019-03-06T22:01:16.066Z,63.85
2019-03-06T22:03:48.220Z,63.57
2019-03-06T22:06:20.116Z,64.43
2019-03-06T22:08:51.979Z,64.17
2019-03-06T22:11:23.881Z,64.19
2019-03-06T22:13:56.153Z,63.46
2019-03-06T22:16:28.095Z,60.76
2019-03-06T22:19:01.009Z,61.41
2019-03-06T22:21:32.966Z,60.43
2019-03-06T22:24:04.957Z,61.36
2019-03-06T22:26:36.778Z,62.03
2019-03-06T22:29:08.738Z,63.14
2019-03-06T22:31:41.442Z,64.34
2019-03-06T22:34:13.267Z,65.53
2019-03-06T22:36:45.078Z,65.13
2019-03-06T22:39:17.154Z,63.64
2019-03-06T22:41:49.155Z,64.37
2019-03-06T22:44:20.977Z,65.28
2019-03-06T22:46:52.866Z,65.55
2019-03-06T22:49:24.955Z,65.66
2019-03-06T22:51:56.788Z,66.49
2019-03-06T22:54:28.682Z,66.40
2019-03-06T22:57:00.425Z,64.49
2019-03-06T22:59:32.168Z,64.22
2019-03-06T23:02:04.243Z,61.30
2019-03-06T23:04:35.990Z,60.25
2019-03-06T23:07:08.174Z,59.20
2019-03-06T23:09:40.083Z,59.39
2019-03-06T23:12:11.896Z,59.26
2019-03-06T23:14:43.641Z,59.70
2019-03-06T23:17:15.783Z,60.04
2019-03-06T23:19:47.682Z,60.20
2019-03-06T23:22:19.508Z,61.36
2019-03-06T23:24:51.511Z,62.38
2019-03-06T23:27:23.499Z,62.22
2019-03-06T23:29:55.324Z,62.39
2019-03-06T23:32:27.069Z,62.19
2019-03-06T23:34:58.920Z,62.74
2019-03-06T23:37:30.902Z,63.32
2019-03-06T23:40:02.652Z,63.23
2019-03-06T23:42:34.492Z,63.24
2019-03-06T23:45:06.592Z,62.64
2019-03-06T23:47:38.462Z,63.41
2019-03-06T23:50:11.597Z,63.62
2019-03-06T23:53:14.403Z,64.03
2019-03-06T23:55:46.291Z,65.22
2019-03-06T23:58:18.054Z,65.49
